createdAt,value
2017-11-29T00:01:06.998Z,4.33
2017-11-29T00:03:33.326Z,6.00
2017-11-29T00:06:00.022Z,4.17
2017-11-29T00:08:26.366Z,3.97
2017-11-29T00:10:55.001Z,4.00
2017-11-29T00:13:21.386Z,2.90
2017-11-29T00:15:48.545Z,6.77
2017-11-29T00:18:14.881Z,3.77
2017-11-29T00:20:41.217Z,4.33
2017-11-29T00:23:07.857Z,4.17
2017-11-29T00:25:34.223Z,4.17
2017-11-29T00:28:01.425Z,5.80
2017-11-29T00:30:28.504Z,8.60
2017-11-29T00:32:55.557Z,5.80
2017-11-29T00:35:21.933Z,4.53
2017-11-29T00:37:49.871Z,10.80
2017-11-29T00:40:16.246Z,7.50
2017-11-29T00:42:44.395Z,5.07
2017-11-29T00:45:12.463Z,3.70
2017-11-29T00:47:39.545Z,4.50
2017-11-29T00:50:07.387Z,4.47
2017-11-29T00:52:34.549Z,3.57
2017-11-29T00:55:00.897Z,2.70
2017-11-29T00:57:27.225Z,2.50
2017-11-29T00:59:54.441Z,3.40
2017-11-29T01:02:20.813Z,3.50
2017-11-29T01:04:50.313Z,3.10
2017-11-29T01:07:16.645Z,3.30
2017-11-29T01:09:44.005Z,3.67
2017-11-29T01:12:10.329Z,3.20
2017-11-29T01:14:36.699Z,2.70
2017-11-29T01:17:03.325Z,2.70
2017-11-29T01:19:29.653Z,2.40
2017-11-29T01:21:56.085Z,3.90
2017-11-29T01:24:22.439Z,3.77
2017-11-29T01:26:48.753Z,7.13
2017-11-29T01:29:16.097Z,5.63
2017-11-29T01:31:43.595Z,5.97
2017-11-29T01:34:12.186Z,4.27
2017-11-29T01:36:38.513Z,3.17
2017-11-29T01:39:05.757Z,6.20
2017-11-29T01:41:32.105Z,3.30
2017-11-29T01:43:59.153Z,3.40
2017-11-29T01:46:26.321Z,4.30
2017-11-29T01:48:53.377Z,3.50
2017-11-29T01:51:19.730Z,2.20
2017-11-29T01:53:46.092Z,2.73
2017-11-29T01:56:13.170Z,2.90
2017-11-29T01:58:40.661Z,3.20
2017-11-29T02:01:07.009Z,5.23
2017-11-29T02:03:33.317Z,3.30
2017-11-29T02:05:59.717Z,3.70
2017-11-29T02:08:26.790Z,2.40
2017-11-29T02:10:54.902Z,6.67
2017-11-29T02:13:21.242Z,2.50
2017-11-29T02:15:49.826Z,2.60
2017-11-29T02:18:16.166Z,2.43
2017-11-29T02:20:42.545Z,3.67
2017-11-29T02:23:09.714Z,5.70
2017-11-29T02:25:37.010Z,5.07
2017-11-29T02:28:04.174Z,6.43
2017-11-29T02:30:31.325Z,5.93
2017-11-29T02:32:58.280Z,4.97
2017-11-29T02:35:25.409Z,7.37
2017-11-29T02:37:52.799Z,5.87
2017-11-29T02:40:31.546Z,5.47
2017-11-29T02:42:59.490Z,7.57
2017-11-29T02:45:27.761Z,4.67
2017-11-29T02:47:54.720Z,2.77
2017-11-29T02:50:22.073Z,2.90
2017-11-29T02:52:48.427Z,3.43
2017-11-29T02:55:14.797Z,5.03
2017-11-29T02:57:41.193Z,4.50
2017-11-29T03:00:08.254Z,3.63
2017-11-29T03:02:35.377Z,3.33
2017-11-29T03:05:02.522Z,10.37
2017-11-29T03:07:29.110Z,7.40
2017-11-29T03:09:55.441Z,5.00
2017-11-29T03:12:21.903Z,2.97
2017-11-29T03:14:49.325Z,6.30
2017-11-29T03:17:16.586Z,26.20
2017-11-29T03:19:43.701Z,25.70
2017-11-29T03:22:10.025Z,11.10
2017-11-29T03:24:37.030Z,7.57
2017-11-29T03:27:03.380Z,5.00
2017-11-29T03:29:29.720Z,4.20
2017-11-29T03:31:57.489Z,3.27
2017-11-29T03:34:23.822Z,4.53
2017-11-29T03:36:50.142Z,5.30
2017-11-29T03:39:17.301Z,3.63
2017-11-29T03:41:45.118Z,4.23
2017-11-29T03:44:12.121Z,3.10
2017-11-29T03:46:39.070Z,3.13
2017-11-29T03:49:06.121Z,2.60
2017-11-29T03:51:32.456Z,3.00
2017-11-29T03:53:58.777Z,3.00
2017-11-29T03:56:26.256Z,3.40
2017-11-29T03:58:54.239Z,3.60
2017-11-29T04:01:20.586Z,4.70
2017-11-29T04:03:46.919Z,4.43
2017-11-29T04:06:13.293Z,3.27
2017-11-29T04:08:40.391Z,3.87
2017-11-29T04:11:06.729Z,2.80
2017-11-29T04:13:33.105Z,2.63
2017-11-29T04:16:01.246Z,3.77
2017-11-29T04:18:27.643Z,4.63
2017-11-29T04:20:54.945Z,2.73
2017-11-29T04:23:21.353Z,4.30
2017-11-29T04:25:47.717Z,2.80
2017-11-29T04:28:14.468Z,4.37
2017-11-29T04:30:42.334Z,6.57
2017-11-29T04:33:10.056Z,5.33
2017-11-29T04:35:36.385Z,6.23
2017-11-29T04:38:03.608Z,8.17
2017-11-29T04:40:30.854Z,7.23
2017-11-29T04:42:57.906Z,6.57
2017-11-29T04:45:24.241Z,5.33
2017-11-29T04:47:50.558Z,5.30
2017-11-29T04:50:17.734Z,5.00
2017-11-29T04:52:44.104Z,3.43
2017-11-29T04:55:13.163Z,10.70
2017-11-29T04:57:39.521Z,5.87
2017-11-29T05:00:06.762Z,3.33
2017-11-29T05:02:33.140Z,5.33
2017-11-29T05:05:01.074Z,5.70
2017-11-29T05:07:27.454Z,4.90
2017-11-29T05:09:53.826Z,5.07
2017-11-29T05:12:20.480Z,3.70
2017-11-29T05:14:46.865Z,3.40
2017-11-29T05:17:14.102Z,3.07
2017-11-29T05:19:41.545Z,3.10
2017-11-29T05:22:08.649Z,3.83
2017-11-29T05:24:35.025Z,4.60
2017-11-29T05:27:01.427Z,8.50
2017-11-29T05:29:28.113Z,6.90
2017-11-29T05:31:55.373Z,5.27
2017-11-29T05:34:21.755Z,3.33
2017-11-29T05:36:48.922Z,14.63
2017-11-29T05:39:16.761Z,9.03
2017-11-29T05:41:43.895Z,20.23
2017-11-29T05:44:11.253Z,10.53
2017-11-29T05:46:37.646Z,14.80
2017-11-29T05:49:04.853Z,10.60
2017-11-29T05:51:32.009Z,8.67
2017-11-29T05:53:58.390Z,10.17
2017-11-29T05:56:24.702Z,7.47
2017-11-29T05:58:51.867Z,10.97
2017-11-29T06:01:18.993Z,7.00
2017-11-29T06:03:45.464Z,5.40
2017-11-29T06:06:12.895Z,5.53
2017-11-29T06:08:39.278Z,5.27
2017-11-29T06:11:06.689Z,6.07
2017-11-29T06:13:33.067Z,7.87
2017-11-29T06:16:00.188Z,8.30
2017-11-29T06:18:27.323Z,9.80
2017-11-29T06:20:53.693Z,7.47
2017-11-29T06:23:20.414Z,9.73
2017-11-29T06:25:46.785Z,7.03
2017-11-29T06:28:14.010Z,5.67
2017-11-29T06:30:42.086Z,10.73
2017-11-29T06:33:09.142Z,5.97
2017-11-29T06:35:36.193Z,10.30
2017-11-29T06:38:03.337Z,7.53
2017-11-29T06:40:30.306Z,15.37
2017-11-29T06:42:58.893Z,16.03
2017-11-29T06:45:25.237Z,11.80
2017-11-29T06:47:52.318Z,6.17
2017-11-29T06:50:20.094Z,5.60
2017-11-29T06:52:46.433Z,6.20
2017-11-29T06:55:12.753Z,13.10
2017-11-29T06:57:40.177Z,5.30
2017-11-29T07:00:07.262Z,10.83
2017-11-29T07:02:34.409Z,4.43
2017-11-29T07:05:01.537Z,10.37
2017-11-29T07:07:27.884Z,9.13
2017-11-29T07:09:54.946Z,5.17
2017-11-29T07:12:21.318Z,5.70
2017-11-29T07:14:48.419Z,5.33
2017-11-29T07:17:14.758Z,12.57
2017-11-29T07:19:41.094Z,16.63
2017-11-29T07:22:08.145Z,9.90
2017-11-29T07:24:34.477Z,4.93
2017-11-29T07:27:01.644Z,7.67
2017-11-29T07:29:27.998Z,13.20
2017-11-29T07:31:55.233Z,7.70
2017-11-29T07:34:22.281Z,13.30
2017-11-29T07:36:49.437Z,14.10
2017-11-29T07:39:16.697Z,12.13
2017-11-29T07:41:43.016Z,9.67
2017-11-29T07:44:09.988Z,13.80
2017-11-29T07:46:37.046Z,10.53
2017-11-29T07:49:05.729Z,5.97
2017-11-29T07:51:32.065Z,6.23
2017-11-29T07:53:58.397Z,5.00
2017-11-29T07:56:25.042Z,14.20
2017-11-29T07:58:51.369Z,9.20
2017-11-29T08:01:17.820Z,8.40
2017-11-29T08:03:44.440Z,7.20
2017-11-29T08:06:10.790Z,10.83
2017-11-29T08:08:52.382Z,6.77
2017-11-29T08:11:19.649Z,6.30
2017-11-29T08:13:46.717Z,10.77
2017-11-29T08:16:13.784Z,16.43
2017-11-29T08:18:41.106Z,13.03
2017-11-29T08:21:07.473Z,14.97
2017-11-29T08:23:35.616Z,28.33
2017-11-29T08:26:02.974Z,15.80
2017-11-29T08:28:30.342Z,15.70
2017-11-29T08:30:57.695Z,14.57
2017-11-29T08:33:25.671Z,11.40
2017-11-29T08:35:52.079Z,11.10
2017-11-29T08:38:19.406Z,12.23
2017-11-29T08:40:46.498Z,15.33
2017-11-29T08:43:13.586Z,11.80
2017-11-29T08:45:40.703Z,13.50
2017-11-29T08:48:07.093Z,5.67
2017-11-29T08:50:34.527Z,7.70
2017-11-29T08:53:00.878Z,11.70
2017-11-29T08:55:28.741Z,6.70
2017-11-29T08:57:55.378Z,8.00
2017-11-29T09:00:21.739Z,11.83
2017-11-29T09:02:48.213Z,8.37
2017-11-29T09:05:14.942Z,5.20
2017-11-29T09:07:41.297Z,7.87
2017-11-29T09:10:09.001Z,8.70
2017-11-29T09:12:35.365Z,5.10
2017-11-29T09:15:02.497Z,8.63
2017-11-29T09:17:28.870Z,7.80
2017-11-29T09:19:55.976Z,10.43
2017-11-29T09:22:23.248Z,7.73
2017-11-29T09:24:49.622Z,11.00
2017-11-29T09:27:16.726Z,7.20
2017-11-29T09:29:44.201Z,6.90
2017-11-29T09:32:11.766Z,7.90
2017-11-29T09:34:38.130Z,6.03
2017-11-29T09:37:05.256Z,7.60
2017-11-29T09:39:32.417Z,11.80
2017-11-29T09:41:59.886Z,7.50
2017-11-29T09:44:27.231Z,5.03
2017-11-29T09:46:53.621Z,7.27
2017-11-29T09:49:20.626Z,7.10
2017-11-29T09:51:47.752Z,7.57
2017-11-29T09:54:14.925Z,6.60
2017-11-29T09:56:41.882Z,6.30
2017-11-29T09:59:08.264Z,6.50
2017-11-29T10:01:35.684Z,12.23
2017-11-29T10:04:02.834Z,4.90
2017-11-29T10:06:30.101Z,5.80
2017-11-29T10:08:56.504Z,5.87
2017-11-29T10:11:22.849Z,4.10
2017-11-29T10:13:49.413Z,6.37
2017-11-29T10:16:16.566Z,6.77
2017-11-29T10:18:42.961Z,5.50
2017-11-29T10:21:09.362Z,5.47
2017-11-29T10:23:35.766Z,5.30
2017-11-29T10:26:03.137Z,5.90
2017-11-29T10:28:30.168Z,5.40
2017-11-29T10:30:56.526Z,5.40
2017-11-29T10:33:23.834Z,7.40
2017-11-29T10:35:50.192Z,6.13
2017-11-29T10:38:17.298Z,6.33
2017-11-29T10:40:43.666Z,7.13
2017-11-29T10:43:10.833Z,8.20
2017-11-29T10:45:37.213Z,4.80
2017-11-29T10:48:04.349Z,4.40
2017-11-29T10:50:31.829Z,5.73
2017-11-29T10:52:58.197Z,6.23
2017-11-29T10:55:25.318Z,9.10
2017-11-29T10:57:53.191Z,5.23
2017-11-29T11:00:25.787Z,5.10
2017-11-29T11:02:52.167Z,6.17
2017-11-29T11:05:19.361Z,6.70
2017-11-29T11:07:45.713Z,6.53
2017-11-29T11:10:12.072Z,4.37
2017-11-29T11:12:40.002Z,5.27
2017-11-29T11:15:06.376Z,6.30
2017-11-29T11:17:32.746Z,5.93
2017-11-29T11:19:59.386Z,5.77
2017-11-29T11:22:25.745Z,7.33
2017-11-29T11:24:53.138Z,7.03
2017-11-29T11:27:19.594Z,5.73
2017-11-29T11:29:46.752Z,9.50
2017-11-29T11:32:14.694Z,8.03
2017-11-29T11:34:41.089Z,3.87
2017-11-29T11:37:07.448Z,3.70
2017-11-29T11:39:34.622Z,3.67
2017-11-29T11:42:03.206Z,3.87
2017-11-29T11:44:29.612Z,5.70
2017-11-29T11:46:56.909Z,4.40
2017-11-29T11:49:24.054Z,6.00
2017-11-29T11:51:50.451Z,5.30
2017-11-29T11:54:16.822Z,6.40
2017-11-29T11:56:43.221Z,5.20
2017-11-29T11:59:09.662Z,5.60
2017-11-29T12:01:36.966Z,3.90
2017-11-29T12:04:04.446Z,5.00
2017-11-29T12:06:30.830Z,3.40
2017-11-29T12:08:57.202Z,3.40
2017-11-29T12:11:24.115Z,3.53
2017-11-29T12:13:50.512Z,4.50
2017-11-29T12:16:16.865Z,3.93
2017-11-29T12:18:44.270Z,4.80
2017-11-29T12:21:11.754Z,4.93
2017-11-29T12:23:38.688Z,5.77
2017-11-29T12:26:05.113Z,4.17
2017-11-29T12:28:31.489Z,3.83
2017-11-29T12:30:57.883Z,4.83
2017-11-29T12:33:25.070Z,10.60
2017-11-29T12:35:51.630Z,3.70
2017-11-29T12:38:19.199Z,5.27
2017-11-29T12:40:47.491Z,4.57
2017-11-29T12:43:15.430Z,5.80
2017-11-29T12:45:41.801Z,4.90
2017-11-29T12:48:22.122Z,5.17
2017-11-29T12:51:01.561Z,5.30
2017-11-29T12:53:29.062Z,4.30
2017-11-29T12:55:56.194Z,5.80
2017-11-29T12:58:23.359Z,4.47
2017-11-29T13:00:51.098Z,4.23
2017-11-29T13:03:18.363Z,2.97
2017-11-29T13:05:46.210Z,4.70
2017-11-29T13:08:12.602Z,6.13
2017-11-29T13:10:39.753Z,4.57
2017-11-29T13:13:06.898Z,3.10
2017-11-29T13:15:34.210Z,5.27
2017-11-29T13:18:01.033Z,4.10
2017-11-29T13:20:28.579Z,5.90
2017-11-29T13:22:55.731Z,5.00
2017-11-29T13:25:22.905Z,5.53
2017-11-29T13:27:49.340Z,7.73
2017-11-29T13:30:16.473Z,5.33
2017-11-29T13:32:43.702Z,6.53
2017-11-29T13:35:10.118Z,5.80
2017-11-29T13:37:37.409Z,6.87
2017-11-29T13:40:04.911Z,7.53
2017-11-29T13:42:32.226Z,5.90
2017-11-29T13:44:59.273Z,5.83
2017-11-29T13:47:25.643Z,5.13
2017-11-29T13:49:53.451Z,4.37
2017-11-29T13:52:19.865Z,5.50
2017-11-29T13:54:47.273Z,5.80
2017-11-29T13:57:14.543Z,12.33
2017-11-29T13:59:40.910Z,4.70
2017-11-29T14:02:08.028Z,5.50
2017-11-29T14:04:34.686Z,5.67
2017-11-29T14:07:01.830Z,4.40
2017-11-29T14:09:28.335Z,4.23
2017-11-29T14:11:54.723Z,4.53
2017-11-29T14:14:21.066Z,6.43
2017-11-29T14:16:48.406Z,9.53
2017-11-29T14:19:14.758Z,5.60
2017-11-29T14:21:41.143Z,8.37
2017-11-29T14:24:07.722Z,5.07
2017-11-29T14:26:34.055Z,6.00
2017-11-29T14:29:01.523Z,5.90
2017-11-29T14:31:28.686Z,5.93
2017-11-29T14:33:54.994Z,5.10
2017-11-29T14:36:21.351Z,6.07
2017-11-29T14:38:49.218Z,5.03
2017-11-29T14:41:15.581Z,4.23
2017-11-29T14:43:43.707Z,4.43
2017-11-29T14:46:10.030Z,8.80
2017-11-29T14:48:37.341Z,6.77
2017-11-29T14:51:03.666Z,5.37
2017-11-29T14:53:30.031Z,4.80
2017-11-29T14:55:57.977Z,5.47
2017-11-29T14:58:24.465Z,7.43
2017-11-29T15:00:50.801Z,9.93
2017-11-29T15:03:17.495Z,16.20
2017-11-29T15:05:43.805Z,9.90
2017-11-29T15:08:10.505Z,7.67
2017-11-29T15:10:37.677Z,5.50
2017-11-29T15:13:04.194Z,6.43
2017-11-29T15:15:32.419Z,8.00
2017-11-29T15:17:58.798Z,8.23
2017-11-29T15:20:25.950Z,7.80
2017-11-29T15:22:53.776Z,10.30
2017-11-29T15:25:21.278Z,10.93
2017-11-29T15:27:47.689Z,10.10
2017-11-29T15:30:14.062Z,6.10
2017-11-29T15:32:41.375Z,9.80
2017-11-29T15:35:07.758Z,6.90
2017-11-29T15:37:34.846Z,6.33
2017-11-29T15:40:02.265Z,5.50
2017-11-29T15:42:30.896Z,5.57
2017-11-29T15:44:57.257Z,7.20
2017-11-29T15:47:23.650Z,3.40
2017-11-29T15:49:51.445Z,4.63
2017-11-29T15:52:18.553Z,4.47
2017-11-29T15:54:44.886Z,4.03
2017-11-29T15:57:11.243Z,3.53
2017-11-29T15:59:37.861Z,5.27
2017-11-29T16:02:04.243Z,6.37
2017-11-29T16:04:31.471Z,6.77
2017-11-29T16:06:58.138Z,5.63
2017-11-29T16:09:25.250Z,5.50
2017-11-29T16:11:52.327Z,5.23
2017-11-29T16:14:19.297Z,7.93
2017-11-29T16:16:47.240Z,7.73
2017-11-29T16:19:13.578Z,6.27
2017-11-29T16:21:42.153Z,9.43
2017-11-29T16:24:09.235Z,15.93
2017-11-29T16:26:35.623Z,11.70
2017-11-29T16:29:02.046Z,9.83
2017-11-29T16:31:29.421Z,5.87
2017-11-29T16:33:55.837Z,8.90
2017-11-29T16:36:22.176Z,10.03
2017-11-29T16:38:49.387Z,6.50
2017-11-29T16:41:15.736Z,5.20
2017-11-29T16:43:43.690Z,7.70
2017-11-29T16:46:10.077Z,7.43
2017-11-29T16:48:37.592Z,4.73
2017-11-29T16:51:05.227Z,4.73
2017-11-29T16:53:31.601Z,6.73
2017-11-29T16:55:57.942Z,11.30
2017-11-29T16:58:25.098Z,11.80
2017-11-29T17:00:52.544Z,7.13
2017-11-29T17:03:18.889Z,20.47
2017-11-29T17:05:45.920Z,21.80
2017-11-29T17:08:12.294Z,15.10
2017-11-29T17:10:39.530Z,9.63
2017-11-29T17:13:05.908Z,8.47
2017-11-29T17:15:33.010Z,9.00
2017-11-29T17:17:59.409Z,6.90
2017-11-29T17:20:25.744Z,14.20
2017-11-29T17:22:52.205Z,13.00
2017-11-29T17:25:18.585Z,12.50
2017-11-29T17:27:44.953Z,13.37
2017-11-29T17:30:12.507Z,8.83
2017-11-29T17:32:40.445Z,9.83
2017-11-29T17:35:06.810Z,16.00
2017-11-29T17:37:33.921Z,9.70
2017-11-29T17:40:01.014Z,10.50
2017-11-29T17:42:28.897Z,13.70
2017-11-29T17:44:56.058Z,13.60
2017-11-29T17:47:24.217Z,15.03
2017-11-29T17:49:51.245Z,9.90
2017-11-29T17:52:17.736Z,7.00
2017-11-29T17:54:44.104Z,10.60
2017-11-29T17:57:10.843Z,9.27
2017-11-29T17:59:37.928Z,10.10
2017-11-29T18:02:04.317Z,7.93
2017-11-29T18:04:32.113Z,9.23
2017-11-29T18:06:59.494Z,8.50
2017-11-29T18:09:27.344Z,12.23
2017-11-29T18:11:53.774Z,12.70
2017-11-29T18:14:20.175Z,16.27
2017-11-29T18:16:47.600Z,10.30
2017-11-29T18:19:13.927Z,12.60
2017-11-29T18:21:40.412Z,10.10
2017-11-29T18:24:07.737Z,17.57
2017-11-29T18:26:34.073Z,15.77
2017-11-29T18:29:00.440Z,17.13
2017-11-29T18:31:28.296Z,17.10
2017-11-29T18:33:55.406Z,15.93
2017-11-29T18:36:22.914Z,13.47
2017-11-29T18:38:50.776Z,14.97
2017-11-29T18:41:17.141Z,12.57
2017-11-29T18:43:44.981Z,17.70
2017-11-29T18:46:12.825Z,16.47
2017-11-29T18:48:39.897Z,16.47
2017-11-29T18:51:06.953Z,15.67
2017-11-29T18:53:34.095Z,16.03
2017-11-29T18:56:00.514Z,15.50
2017-11-29T18:58:27.193Z,15.70
2017-11-29T19:00:54.446Z,14.73
2017-11-29T19:03:21.631Z,14.57
2017-11-29T19:05:49.503Z,14.73
2017-11-29T19:08:16.734Z,14.90
2017-11-29T19:10:43.126Z,13.20
2017-11-29T19:13:09.807Z,17.10
2017-11-29T19:15:36.494Z,20.73
2017-11-29T19:18:03.676Z,20.83
2017-11-29T19:20:30.161Z,23.73
2017-11-29T19:22:57.624Z,25.00
2017-11-29T19:25:24.825Z,16.00
2017-11-29T19:27:51.286Z,18.10
2017-11-29T19:30:18.125Z,15.20
2017-11-29T19:32:45.313Z,14.87
2017-11-29T19:35:11.676Z,14.33
2017-11-29T19:37:39.637Z,12.60
2017-11-29T19:40:06.853Z,13.33
2017-11-29T19:42:33.938Z,13.20
2017-11-29T19:45:00.987Z,13.40
2017-11-29T19:47:27.313Z,15.40
2017-11-29T19:49:54.590Z,14.00
2017-11-29T19:52:21.657Z,13.40
2017-11-29T19:54:49.009Z,12.73
2017-11-29T19:57:16.096Z,15.90
2017-11-29T19:59:43.610Z,12.50
2017-11-29T20:02:10.765Z,14.00
2017-11-29T20:04:38.124Z,14.67
2017-11-29T20:07:04.452Z,23.73
2017-11-29T20:09:31.622Z,18.53
2017-11-29T20:11:58.110Z,14.97
2017-11-29T20:14:24.526Z,17.30
2017-11-29T20:16:52.061Z,14.90
2017-11-29T20:19:19.318Z,16.77
2017-11-29T20:21:46.339Z,18.30
2017-11-29T20:24:12.782Z,21.53
2017-11-29T20:26:39.130Z,17.90
2017-11-29T20:29:05.793Z,14.23
2017-11-29T20:31:33.862Z,14.70
2017-11-29T20:34:00.227Z,12.83
2017-11-29T20:36:28.280Z,14.60
2017-11-29T20:38:55.475Z,13.00
2017-11-29T20:41:23.505Z,17.60
2017-11-29T20:43:50.559Z,16.20
2017-11-29T20:46:17.824Z,16.50
2017-11-29T20:48:45.173Z,16.60
2017-11-29T20:51:11.533Z,14.27
2017-11-29T20:53:38.601Z,14.47
2017-11-29T20:56:05.743Z,18.17
2017-11-29T20:58:32.882Z,15.97
2017-11-29T21:01:00.188Z,14.00
2017-11-29T21:03:26.524Z,13.87
2017-11-29T21:05:52.856Z,14.77
2017-11-29T21:08:19.234Z,15.00
2017-11-29T21:10:46.410Z,13.20
2017-11-29T21:13:13.658Z,16.00
2017-11-29T21:15:41.025Z,17.53
2017-11-29T21:18:08.877Z,13.70
2017-11-29T21:20:36.123Z,11.93
2017-11-29T21:23:02.645Z,13.37
2017-11-29T21:25:28.990Z,11.60
2017-11-29T21:27:56.083Z,14.97
2017-11-29T21:30:22.558Z,19.80
2017-11-29T21:32:50.502Z,14.77
2017-11-29T21:35:18.361Z,14.90
2017-11-29T21:37:46.745Z,17.83
2017-11-29T21:40:13.074Z,39.50
2017-11-29T21:42:40.342Z,16.47
2017-11-29T21:45:06.692Z,19.83
2017-11-29T21:47:35.265Z,15.50
2017-11-29T21:50:02.214Z,15.93
2017-11-29T21:52:28.550Z,16.57
2017-11-29T21:54:56.419Z,13.73
2017-11-29T21:57:23.680Z,15.97
2017-11-29T21:59:50.910Z,12.60
2017-11-29T22:02:17.279Z,23.20
2017-11-29T22:04:44.526Z,13.83
2017-11-29T22:07:13.424Z,12.67
2017-11-29T22:09:39.753Z,11.47
2017-11-29T22:12:06.373Z,9.77
2017-11-29T22:14:33.668Z,11.37
2017-11-29T22:17:02.286Z,11.30
2017-11-29T22:19:29.386Z,7.60
2017-11-29T22:21:55.745Z,10.40
2017-11-29T22:24:22.106Z,8.57
2017-11-29T22:26:50.849Z,6.60
2017-11-29T22:29:17.896Z,9.23
2017-11-29T22:32:00.127Z,7.33
2017-11-29T22:34:26.472Z,7.70
2017-11-29T22:36:54.225Z,7.00
2017-11-29T22:39:21.277Z,6.03
2017-11-29T22:41:48.425Z,7.47
2017-11-29T22:44:15.793Z,5.30
2017-11-29T22:46:42.153Z,4.50
2017-11-29T22:49:10.112Z,5.00
2017-11-29T22:51:36.490Z,4.50
2017-11-29T22:54:02.962Z,4.90
2017-11-29T22:56:30.045Z,4.63
2017-11-29T22:58:57.192Z,4.90
2017-11-29T23:01:23.562Z,5.57
2017-11-29T23:03:50.735Z,4.37
2017-11-29T23:06:17.353Z,5.40
2017-11-29T23:08:45.373Z,4.70
2017-11-29T23:11:11.827Z,5.27
2017-11-29T23:13:38.222Z,5.10
2017-11-29T23:16:05.329Z,5.20
2017-11-29T23:18:32.577Z,6.93
2017-11-29T23:20:59.641Z,11.50
2017-11-29T23:23:27.529Z,15.10
2017-11-29T23:25:53.867Z,6.27
2017-11-29T23:28:20.593Z,6.33
2017-11-29T23:30:46.960Z,13.50
2017-11-29T23:33:14.905Z,10.07
2017-11-29T23:35:41.306Z,7.17
2017-11-29T23:38:08.393Z,6.30
2017-11-29T23:40:34.730Z,6.43
2017-11-29T23:43:02.201Z,7.20
2017-11-29T23:45:28.566Z,4.57
2017-11-29T23:47:56.704Z,11.70
2017-11-29T23:50:23.865Z,6.30
2017-11-29T23:52:52.250Z,7.23
2017-11-29T23:55:19.402Z,4.90
2017-11-29T23:57:45.800Z,4.27
